createdAt,value
2018-11-26T00:01:47.711Z,3.10
2018-11-26T00:04:16.152Z,3.10
2018-11-26T00:06:44.744Z,3.00
2018-11-26T00:09:13.198Z,3.00
2018-11-26T00:11:41.706Z,3.00
2018-11-26T00:14:10.106Z,3.00
2018-11-26T00:16:38.500Z,3.00
2018-11-26T00:19:07.019Z,3.00
2018-11-26T00:21:35.443Z,3.00
2018-11-26T00:24:04.095Z,3.00
2018-11-26T00:26:32.512Z,2.90
2018-11-26T00:29:00.986Z,2.90
2018-11-26T00:31:29.383Z,2.90
2018-11-26T00:33:57.814Z,2.90
2018-11-26T00:36:26.480Z,2.90
2018-11-26T00:38:54.907Z,2.90
2018-11-26T00:41:23.291Z,2.80
2018-11-26T00:43:51.715Z,2.80
2018-11-26T00:46:20.764Z,2.80
2018-11-26T00:48:48.741Z,2.80
2018-11-26T00:51:17.131Z,2.80
2018-11-26T00:53:45.543Z,2.80
2018-11-26T00:56:13.956Z,2.80
2018-11-26T00:58:42.347Z,2.80
2018-11-26T01:01:10.747Z,2.80
2018-11-26T01:03:39.124Z,2.90
2018-11-26T01:06:07.514Z,2.80
2018-11-26T01:08:35.944Z,2.80
2018-11-26T01:11:04.373Z,2.80
2018-11-26T01:13:32.850Z,2.80
2018-11-26T01:16:01.289Z,2.80
2018-11-26T01:18:29.696Z,2.80
2018-11-26T01:20:58.062Z,2.90
2018-11-26T01:23:26.492Z,2.80
2018-11-26T01:25:54.917Z,2.80
2018-11-26T01:28:23.379Z,2.80
2018-11-26T01:30:51.800Z,2.80
2018-11-26T01:33:20.266Z,2.80
2018-11-26T01:35:48.711Z,2.80
2018-11-26T01:38:17.151Z,2.80
2018-11-26T01:40:48.447Z,2.80
2018-11-26T01:43:16.979Z,2.80
2018-11-26T01:45:45.482Z,2.80
2018-11-26T01:48:13.899Z,2.80
2018-11-26T01:50:42.365Z,2.80
2018-11-26T01:53:10.768Z,2.80
2018-11-26T01:55:39.165Z,2.80
2018-11-26T01:58:07.600Z,2.70
2018-11-26T02:00:36.051Z,2.70
2018-11-26T02:03:05.354Z,2.70
2018-11-26T02:05:33.831Z,2.70
2018-11-26T02:08:02.227Z,2.70
2018-11-26T02:10:30.662Z,2.70
2018-11-26T02:12:59.064Z,2.80
2018-11-26T02:15:33.840Z,2.80
2018-11-26T02:18:02.393Z,2.70
2018-11-26T02:20:30.917Z,2.70
2018-11-26T02:22:59.480Z,2.70
2018-11-26T02:25:27.960Z,2.70
2018-11-26T02:27:56.500Z,2.70
2018-11-26T02:30:25.065Z,2.70
2018-11-26T02:32:53.582Z,2.70
2018-11-26T02:35:22.151Z,2.70
2018-11-26T02:37:51.543Z,2.70
2018-11-26T02:40:25.003Z,2.70
2018-11-26T02:42:53.529Z,2.70
2018-11-26T02:45:22.158Z,2.70
2018-11-26T02:47:50.678Z,2.70
2018-11-26T02:50:19.324Z,2.70
2018-11-26T02:52:47.840Z,2.70
2018-11-26T02:55:16.406Z,2.80
2018-11-26T02:57:44.915Z,2.70
2018-11-26T03:00:13.746Z,2.70
2018-11-26T03:02:42.239Z,2.70
2018-11-26T03:05:12.543Z,2.70
2018-11-26T03:07:41.244Z,2.60
2018-11-26T03:10:10.247Z,2.70
2018-11-26T03:12:39.015Z,2.70
2018-11-26T03:15:10.960Z,2.60
2018-11-26T03:17:39.783Z,2.60
2018-11-26T03:20:10.023Z,2.70
2018-11-26T03:22:38.471Z,2.70
2018-11-26T03:25:08.380Z,2.60
2018-11-26T03:27:36.833Z,2.60
2018-11-26T03:30:09.730Z,2.50
2018-11-26T03:32:38.146Z,2.60
2018-11-26T03:35:07.395Z,2.60
2018-11-26T03:37:35.839Z,2.60
2018-11-26T03:40:08.711Z,2.60
2018-11-26T03:42:37.141Z,2.60
2018-11-26T03:45:08.640Z,2.60
2018-11-26T03:47:37.047Z,2.60
2018-11-26T03:50:05.636Z,2.60
2018-11-26T03:52:34.048Z,2.50
2018-11-26T03:55:02.451Z,2.50
2018-11-26T03:57:30.860Z,2.50
2018-11-26T03:59:59.335Z,2.40
2018-11-26T04:02:27.780Z,2.40
2018-11-26T04:04:56.187Z,2.40
2018-11-26T04:07:24.614Z,2.40
2018-11-26T04:09:53.013Z,2.40
2018-11-26T04:12:21.495Z,2.40
2018-11-26T04:14:49.965Z,2.30
2018-11-26T04:17:18.384Z,2.20
2018-11-26T04:19:46.817Z,2.30
2018-11-26T04:22:15.232Z,2.30
2018-11-26T04:24:43.625Z,2.30
2018-11-26T04:27:12.024Z,2.30
2018-11-26T04:29:40.408Z,2.30
2018-11-26T04:32:08.821Z,2.30
2018-11-26T04:34:37.281Z,2.30
2018-11-26T04:37:05.960Z,2.30
2018-11-26T04:39:34.454Z,2.30
2018-11-26T04:42:02.911Z,2.30
2018-11-26T04:44:31.486Z,2.30
2018-11-26T04:46:59.966Z,2.30
2018-11-26T04:49:28.459Z,2.20
2018-11-26T04:51:57.003Z,2.20
2018-11-26T04:54:25.572Z,2.30
2018-11-26T04:56:54.072Z,2.30
2018-11-26T04:59:22.550Z,2.30
2018-11-26T05:01:51.056Z,2.20
2018-11-26T05:04:19.596Z,2.30
2018-11-26T05:06:48.112Z,2.30
2018-11-26T05:09:16.636Z,2.20
2018-11-26T05:11:45.172Z,2.20
2018-11-26T05:14:13.658Z,2.10
2018-11-26T05:16:42.176Z,2.10
2018-11-26T05:19:10.960Z,2.10
2018-11-26T05:21:39.483Z,2.10
2018-11-26T05:24:09.073Z,2.20
2018-11-26T05:26:36.749Z,2.00
2018-11-26T05:29:05.913Z,2.10
2018-11-26T05:31:34.443Z,2.20
2018-11-26T05:34:03.164Z,2.10
2018-11-26T05:36:31.679Z,2.20
2018-11-26T05:39:00.269Z,2.20
2018-11-26T05:41:28.764Z,2.10
2018-11-26T05:43:57.295Z,2.10
2018-11-26T05:46:25.858Z,2.10
2018-11-26T05:48:54.452Z,2.10
2018-11-26T05:51:22.962Z,2.10
2018-11-26T05:53:51.469Z,2.10
2018-11-26T05:56:19.975Z,2.10
2018-11-26T05:58:48.463Z,2.10
2018-11-26T06:01:16.972Z,2.20
2018-11-26T06:03:45.488Z,2.10
2018-11-26T06:06:13.955Z,2.10
2018-11-26T06:08:42.423Z,2.20
2018-11-26T06:11:10.936Z,2.10
2018-11-26T06:13:39.384Z,2.10
2018-11-26T06:16:08.084Z,2.10
2018-11-26T06:18:36.639Z,2.20
2018-11-26T06:21:05.616Z,2.20
2018-11-26T06:23:34.121Z,2.10
2018-11-26T06:26:02.672Z,2.10
2018-11-26T06:28:31.192Z,2.10
2018-11-26T06:30:59.666Z,2.10
2018-11-26T06:33:28.134Z,2.00
2018-11-26T06:35:56.797Z,2.10
2018-11-26T06:38:25.335Z,2.10
2018-11-26T06:40:53.975Z,2.10
2018-11-26T06:43:22.539Z,2.10
2018-11-26T06:45:51.080Z,2.10
2018-11-26T06:48:19.625Z,2.10
2018-11-26T06:50:48.141Z,2.10
2018-11-26T06:53:16.741Z,2.00
2018-11-26T06:55:45.283Z,2.10
2018-11-26T06:58:13.877Z,2.10
2018-11-26T07:00:42.406Z,2.10
2018-11-26T07:03:10.934Z,2.10
2018-11-26T07:05:39.440Z,2.10
2018-11-26T07:08:08.001Z,2.00
2018-11-26T07:10:36.521Z,1.90
2018-11-26T07:13:05.221Z,1.90
2018-11-26T07:15:33.750Z,1.90
2018-11-26T07:18:02.342Z,1.90
2018-11-26T07:20:30.909Z,1.90
2018-11-26T07:22:59.437Z,2.00
2018-11-26T07:25:28.082Z,2.00
2018-11-26T07:27:56.614Z,1.90
2018-11-26T07:30:26.342Z,1.90
2018-11-26T07:32:54.843Z,1.80
2018-11-26T07:35:23.346Z,1.80
2018-11-26T07:37:51.902Z,1.80
2018-11-26T07:40:22.277Z,1.80
2018-11-26T07:42:57.351Z,1.80
2018-11-26T07:45:26.773Z,1.80
2018-11-26T07:47:56.618Z,1.80
2018-11-26T07:50:26.171Z,1.80
2018-11-26T07:52:55.541Z,1.80
2018-11-26T07:55:25.657Z,1.80
2018-11-26T07:57:55.174Z,1.80
2018-11-26T08:00:24.590Z,1.80
2018-11-26T08:02:54.165Z,1.80
2018-11-26T08:05:24.437Z,1.80
2018-11-26T08:07:53.860Z,1.90
2018-11-26T08:10:24.850Z,1.90
2018-11-26T08:12:55.045Z,1.90
2018-11-26T08:15:26.456Z,1.90
2018-11-26T08:17:55.108Z,1.90
2018-11-26T08:20:23.784Z,1.80
2018-11-26T08:22:52.325Z,1.90
2018-11-26T08:25:21.770Z,1.90
2018-11-26T08:27:50.834Z,1.90
2018-11-26T08:30:21.416Z,1.90
2018-11-26T08:32:53.845Z,1.90
2018-11-26T08:35:22.346Z,1.90
2018-11-26T08:37:57.247Z,1.90
2018-11-26T08:40:37.108Z,1.90
2018-11-26T08:43:11.749Z,1.90
2018-11-26T08:45:47.311Z,1.90
2018-11-26T08:48:15.863Z,1.90
2018-11-26T08:50:45.295Z,1.90
2018-11-26T08:53:13.882Z,1.90
2018-11-26T08:55:42.410Z,1.90
2018-11-26T08:58:10.968Z,1.90
2018-11-26T09:00:39.480Z,1.90
2018-11-26T09:03:13.375Z,1.90
2018-11-26T09:06:02.332Z,1.90
2018-11-26T09:08:32.841Z,1.90
2018-11-26T09:11:02.827Z,1.90
2018-11-26T09:13:31.260Z,1.90
2018-11-26T09:15:59.695Z,2.00
2018-11-26T09:18:28.175Z,2.00
2018-11-26T09:20:56.629Z,2.00
2018-11-26T09:23:25.036Z,2.00
2018-11-26T09:25:53.482Z,1.90
2018-11-26T09:28:21.996Z,1.90
2018-11-26T09:30:50.523Z,2.00
2018-11-26T09:33:19.949Z,2.00
2018-11-26T09:35:48.555Z,2.00
2018-11-26T09:38:17.076Z,1.90
2018-11-26T09:40:45.653Z,1.90
2018-11-26T09:43:14.218Z,2.00
2018-11-26T09:45:42.690Z,2.00
2018-11-26T09:48:11.143Z,2.00
2018-11-26T09:50:39.651Z,2.00
2018-11-26T09:53:08.107Z,2.00
2018-11-26T09:55:36.638Z,2.00
2018-11-26T09:58:05.482Z,2.10
2018-11-26T10:00:34.000Z,2.10
2018-11-26T10:03:02.538Z,2.20
2018-11-26T10:05:31.077Z,2.20
2018-11-26T10:07:59.637Z,2.20
2018-11-26T10:10:28.152Z,2.20
2018-11-26T10:12:56.601Z,2.20
2018-11-26T10:15:26.145Z,2.20
2018-11-26T10:17:54.600Z,2.20
2018-11-26T10:20:23.038Z,2.20
2018-11-26T10:22:52.473Z,2.30
2018-11-26T10:25:21.583Z,2.30
2018-11-26T10:27:50.054Z,2.30
2018-11-26T10:30:19.823Z,2.30
2018-11-26T10:32:49.027Z,2.30
2018-11-26T10:35:18.331Z,2.30
2018-11-26T10:37:46.869Z,2.40
2018-11-26T10:40:17.307Z,2.40
2018-11-26T10:42:52.406Z,2.50
2018-11-26T10:45:22.562Z,2.60
2018-11-26T10:47:50.960Z,2.60
2018-11-26T10:50:21.737Z,2.60
2018-11-26T10:53:00.957Z,2.50
2018-11-26T10:55:34.352Z,2.50
2018-11-26T10:58:03.005Z,2.50
2018-11-26T11:00:36.711Z,2.50
2018-11-26T11:03:05.503Z,2.50
2018-11-26T11:05:34.179Z,2.50
2018-11-26T11:08:02.790Z,2.60
2018-11-26T11:10:32.316Z,2.50
2018-11-26T11:13:00.890Z,2.50
2018-11-26T11:15:29.390Z,2.50
2018-11-26T11:17:57.911Z,2.50
2018-11-26T11:20:27.671Z,2.60
2018-11-26T11:22:56.164Z,2.60
2018-11-26T11:25:24.877Z,2.60
2018-11-26T11:27:53.726Z,2.50
2018-11-26T11:30:24.422Z,2.50
2018-11-26T11:32:52.939Z,2.40
2018-11-26T11:35:21.544Z,2.40
2018-11-26T11:37:50.748Z,2.40
2018-11-26T11:40:24.195Z,2.30
2018-11-26T11:42:52.876Z,2.40
2018-11-26T11:45:21.789Z,2.40
2018-11-26T11:47:50.372Z,2.30
2018-11-26T11:50:19.729Z,2.40
2018-11-26T11:52:48.437Z,2.30
2018-11-26T11:55:18.001Z,2.30
2018-11-26T11:57:46.456Z,2.40
2018-11-26T12:00:24.886Z,2.30
2018-11-26T12:02:53.420Z,2.30
2018-11-26T12:05:22.001Z,2.30
2018-11-26T12:07:50.624Z,2.30
2018-11-26T12:10:19.143Z,2.30
2018-11-26T12:12:47.736Z,2.30
2018-11-26T12:15:16.959Z,2.30
2018-11-26T12:17:46.197Z,2.30
2018-11-26T12:20:15.222Z,2.40
2018-11-26T12:22:44.024Z,2.40
2018-11-26T12:25:13.527Z,2.40
2018-11-26T12:27:41.993Z,2.40
2018-11-26T12:30:20.327Z,2.50
2018-11-26T12:32:48.834Z,2.50
2018-11-26T12:35:17.338Z,2.40
2018-11-26T12:37:45.798Z,2.40
2018-11-26T12:40:15.505Z,2.20
2018-11-26T12:42:44.022Z,2.20
2018-11-26T12:45:43.219Z,2.20
2018-11-26T12:48:11.672Z,2.20
2018-11-26T12:50:40.211Z,2.10
2018-11-26T12:53:08.639Z,2.10
2018-11-26T12:55:38.078Z,2.10
2018-11-26T12:58:07.421Z,2.10
2018-11-26T13:00:36.667Z,2.10
2018-11-26T13:03:08.589Z,2.10
2018-11-26T13:05:37.121Z,2.10
2018-11-26T13:08:05.666Z,2.20
2018-11-26T13:10:35.542Z,2.30
2018-11-26T13:13:05.081Z,2.40
2018-11-26T13:15:34.548Z,2.40
2018-11-26T13:18:03.097Z,2.40
2018-11-26T13:20:31.741Z,2.40
2018-11-26T13:23:00.234Z,2.40
2018-11-26T13:25:31.180Z,2.40
2018-11-26T13:28:00.893Z,2.30
2018-11-26T13:30:33.658Z,2.30
2018-11-26T13:33:03.328Z,2.20
2018-11-26T13:35:31.837Z,2.20
2018-11-26T13:38:00.416Z,2.10
2018-11-26T13:40:28.921Z,2.00
2018-11-26T13:42:57.484Z,1.90
2018-11-26T13:45:31.001Z,1.90
2018-11-26T13:47:59.579Z,1.80
2018-11-26T13:50:31.392Z,1.80
2018-11-26T13:52:59.943Z,1.70
2018-11-26T13:55:28.458Z,1.80
2018-11-26T13:57:57.045Z,1.80
2018-11-26T14:00:25.633Z,1.70
2018-11-26T14:02:54.161Z,1.70
2018-11-26T14:05:22.693Z,1.70
2018-11-26T14:07:52.755Z,1.70
2018-11-26T14:10:23.445Z,1.70
2018-11-26T14:12:58.092Z,1.70
2018-11-26T14:15:26.637Z,1.70
2018-11-26T14:17:55.190Z,1.70
2018-11-26T14:20:23.703Z,1.70
2018-11-26T14:22:52.267Z,1.70
2018-11-26T14:25:20.786Z,1.70
2018-11-26T14:27:49.552Z,1.70
2018-11-26T14:30:18.964Z,1.70
2018-11-26T14:32:47.585Z,1.70
2018-11-26T14:35:16.152Z,1.60
2018-11-26T14:37:45.261Z,1.60
2018-11-26T14:40:21.982Z,1.50
2018-11-26T14:42:50.552Z,1.50
2018-11-26T14:45:19.212Z,1.50
2018-11-26T14:47:47.755Z,1.50
2018-11-26T14:50:17.840Z,1.40
2018-11-26T14:52:48.450Z,1.40
2018-11-26T14:55:26.753Z,1.40
2018-11-26T14:57:55.281Z,1.40
2018-11-26T15:00:24.100Z,1.40
2018-11-26T15:02:52.631Z,1.50
2018-11-26T15:05:21.118Z,1.50
2018-11-26T15:07:50.595Z,1.40
2018-11-26T15:10:20.588Z,1.40
2018-11-26T15:12:49.132Z,1.40
2018-11-26T15:15:18.788Z,1.50
2018-11-26T15:17:47.377Z,1.50
2018-11-26T15:20:17.008Z,1.40
2018-11-26T15:22:45.525Z,1.40
2018-11-26T15:25:16.176Z,1.40
2018-11-26T15:27:44.804Z,1.30
2018-11-26T15:30:14.305Z,1.30
2018-11-26T15:32:43.276Z,1.30
2018-11-26T15:35:20.113Z,1.20
2018-11-26T15:37:48.631Z,1.30
2018-11-26T15:40:18.205Z,1.30
2018-11-26T15:42:46.836Z,1.30
2018-11-26T15:45:17.325Z,1.30
2018-11-26T15:47:46.875Z,1.30
2018-11-26T15:50:15.389Z,1.30
2018-11-26T15:52:43.794Z,1.30
2018-11-26T15:55:13.228Z,1.30
2018-11-26T15:57:43.368Z,1.30
2018-11-26T16:00:16.824Z,1.40
2018-11-26T16:02:45.385Z,1.30
2018-11-26T16:05:15.923Z,1.30
2018-11-26T16:07:44.629Z,1.20
2018-11-26T16:10:13.885Z,1.20
2018-11-26T16:12:42.843Z,1.20
2018-11-26T16:15:16.027Z,1.30
2018-11-26T16:17:44.585Z,1.30
2018-11-26T16:20:14.427Z,1.30
2018-11-26T16:22:43.179Z,1.40
2018-11-26T16:25:12.948Z,1.30
2018-11-26T16:27:41.606Z,1.20
2018-11-26T16:30:12.478Z,1.10
2018-11-26T16:32:41.344Z,1.10
2018-11-26T16:35:13.208Z,1.10
2018-11-26T16:37:42.386Z,1.00
2018-11-26T16:40:13.442Z,1.00
2018-11-26T16:42:42.053Z,1.00
2018-11-26T16:45:16.628Z,1.10
2018-11-26T16:47:46.101Z,1.10
2018-11-26T16:50:15.864Z,1.00
2018-11-26T16:52:44.604Z,1.00
2018-11-26T16:55:14.015Z,1.00
2018-11-26T16:57:42.683Z,1.00
2018-11-26T17:00:12.694Z,0.90
2018-11-26T17:02:41.170Z,0.90
2018-11-26T17:05:11.597Z,0.90
2018-11-26T17:07:40.141Z,0.90
2018-11-26T17:10:09.376Z,0.90
2018-11-26T17:12:38.073Z,0.80
2018-11-26T17:15:09.074Z,0.80
2018-11-26T17:17:37.636Z,0.70
2018-11-26T17:20:07.436Z,0.70
2018-11-26T17:22:36.004Z,0.70
2018-11-26T17:25:04.916Z,0.70
2018-11-26T17:27:33.421Z,0.60
2018-11-26T17:30:01.945Z,0.60
2018-11-26T17:32:30.460Z,0.60
2018-11-26T17:34:59.364Z,0.60
2018-11-26T17:37:27.901Z,0.60
2018-11-26T17:39:56.491Z,0.60
2018-11-26T17:42:25.015Z,0.60
2018-11-26T17:44:53.546Z,0.50
2018-11-26T17:47:22.104Z,0.50
2018-11-26T17:49:50.639Z,0.50
2018-11-26T17:52:19.154Z,0.50
2018-11-26T17:54:47.716Z,0.50
2018-11-26T17:57:16.497Z,0.50
2018-11-26T17:59:45.094Z,0.40
2018-11-26T18:02:13.627Z,0.40
2018-11-26T18:04:42.163Z,0.40
2018-11-26T18:07:10.711Z,0.40
2018-11-26T18:09:40.567Z,0.40
2018-11-26T18:12:09.116Z,0.30
2018-11-26T18:14:37.697Z,0.30
2018-11-26T18:17:06.289Z,0.20
2018-11-26T18:19:34.856Z,0.30
2018-11-26T18:22:03.439Z,0.30
2018-11-26T18:24:32.000Z,0.20
2018-11-26T18:27:00.564Z,0.30
2018-11-26T18:29:29.269Z,0.30
2018-11-26T18:31:58.076Z,0.30
2018-11-26T18:34:26.642Z,0.30
2018-11-26T18:36:55.150Z,0.30
2018-11-26T18:39:23.717Z,0.30
2018-11-26T18:41:52.240Z,0.30
2018-11-26T18:44:20.788Z,0.30
2018-11-26T18:46:49.376Z,0.30
2018-11-26T18:49:17.894Z,0.20
2018-11-26T18:51:46.674Z,0.20
2018-11-26T18:54:15.222Z,0.30
2018-11-26T18:56:43.798Z,0.20
2018-11-26T18:59:12.382Z,0.20
2018-11-26T19:01:40.906Z,0.20
2018-11-26T19:04:09.432Z,0.20
2018-11-26T19:06:37.992Z,0.10
2018-11-26T19:09:08.471Z,0.20
2018-11-26T19:11:36.907Z,0.20
2018-11-26T19:14:09.767Z,0.20
2018-11-26T19:16:42.896Z,0.20
2018-11-26T19:19:11.589Z,0.20
2018-11-26T19:21:40.173Z,0.20
2018-11-26T19:24:08.699Z,0.20
2018-11-26T19:26:38.133Z,0.20
2018-11-26T19:29:06.684Z,0.10
2018-11-26T19:31:35.235Z,0.20
2018-11-26T19:34:03.720Z,0.10
2018-11-26T19:36:32.256Z,0.20
2018-11-26T19:39:00.791Z,0.20
2018-11-26T19:41:29.270Z,0.20
2018-11-26T19:43:57.711Z,0.10
2018-11-26T19:46:26.235Z,0.10
2018-11-26T19:48:54.760Z,0.20
2018-11-26T19:51:23.268Z,0.20
2018-11-26T19:53:51.818Z,0.20
2018-11-26T19:56:20.419Z,0.20
2018-11-26T19:58:48.976Z,0.20
2018-11-26T20:01:17.525Z,0.10
2018-11-26T20:03:48.641Z,0.00
2018-11-26T20:06:19.258Z,0.00
2018-11-26T20:08:49.209Z,0.10
2018-11-26T20:11:17.768Z,0.10
2018-11-26T20:13:47.148Z,0.10
2018-11-26T20:16:21.020Z,0.10
2018-11-26T20:18:49.560Z,0.00
2018-11-26T20:21:18.083Z,0.10
2018-11-26T20:23:46.606Z,0.10
2018-11-26T20:26:15.272Z,0.20
2018-11-26T20:28:43.833Z,0.20
2018-11-26T20:31:12.496Z,0.20
2018-11-26T20:33:41.023Z,0.10
2018-11-26T20:36:11.418Z,0.10
2018-11-26T20:38:39.895Z,0.10
2018-11-26T20:41:09.448Z,0.10
2018-11-26T20:43:38.005Z,0.00
2018-11-26T20:46:06.673Z,0.10
2018-11-26T20:48:35.140Z,0.20
2018-11-26T20:51:03.631Z,0.20
2018-11-26T20:53:32.135Z,0.20
2018-11-26T20:56:01.196Z,0.20
2018-11-26T20:58:29.701Z,0.10
2018-11-26T21:00:58.229Z,0.10
2018-11-26T21:03:31.095Z,0.00
2018-11-26T21:05:59.918Z,0.00
2018-11-26T21:08:28.355Z,0.00
2018-11-26T21:10:56.862Z,0.10
2018-11-26T21:13:25.356Z,0.10
2018-11-26T21:15:53.767Z,0.10
2018-11-26T21:18:22.225Z,0.10
2018-11-26T21:20:51.131Z,0.10
2018-11-26T21:23:31.763Z,0.20
2018-11-26T21:26:01.641Z,0.20
2018-11-26T21:28:30.161Z,0.20
2018-11-26T21:30:58.650Z,0.10
2018-11-26T21:33:27.244Z,0.10
2018-11-26T21:35:55.724Z,0.00
2018-11-26T21:38:24.402Z,0.10
2018-11-26T21:40:53.843Z,0.10
2018-11-26T21:43:22.415Z,0.10
2018-11-26T21:45:54.682Z,0.10
2018-11-26T21:48:23.214Z,0.00
2018-11-26T21:50:51.748Z,0.00
2018-11-26T21:53:20.261Z,0.00
2018-11-26T21:55:48.773Z,0.00
2018-11-26T21:58:17.329Z,-0.10
2018-11-26T22:00:46.632Z,0.00
2018-11-26T22:03:15.446Z,0.00
2018-11-26T22:05:44.518Z,0.00
2018-11-26T22:08:13.174Z,-0.10
2018-11-26T22:10:42.567Z,0.00
2018-11-26T22:13:15.410Z,0.00
2018-11-26T22:15:43.887Z,0.00
2018-11-26T22:18:12.286Z,-0.10
2018-11-26T22:20:40.731Z,-0.10
2018-11-26T22:23:09.168Z,-0.10
2018-11-26T22:25:37.660Z,-0.10
2018-11-26T22:28:07.888Z,-0.10
2018-11-26T22:30:36.959Z,-0.10
2018-11-26T22:33:05.547Z,-0.10
2018-11-26T22:35:33.964Z,-0.10
2018-11-26T22:38:02.376Z,0.00
2018-11-26T22:40:30.853Z,0.00
2018-11-26T22:42:59.307Z,0.00
2018-11-26T22:45:29.534Z,-0.10
2018-11-26T22:48:01.007Z,-0.10
2018-11-26T22:50:29.568Z,-0.10
2018-11-26T22:52:59.044Z,-0.10
2018-11-26T22:55:28.721Z,-0.10
2018-11-26T22:57:59.943Z,0.00
2018-11-26T23:00:38.746Z,-0.10
2018-11-26T23:03:07.232Z,0.00
2018-11-26T23:05:35.834Z,0.00
2018-11-26T23:08:04.412Z,0.00
2018-11-26T23:10:33.399Z,0.00
2018-11-26T23:13:01.953Z,0.00
2018-11-26T23:15:30.512Z,0.00
2018-11-26T23:17:59.010Z,0.00
2018-11-26T23:20:27.585Z,0.00
2018-11-26T23:22:56.155Z,0.10
2018-11-26T23:25:24.831Z,0.10
2018-11-26T23:27:53.332Z,0.10
2018-11-26T23:30:22.792Z,0.10
2018-11-26T23:32:53.562Z,0.10
2018-11-26T23:35:22.138Z,0.10
2018-11-26T23:37:50.653Z,0.10
2018-11-26T23:40:19.279Z,0.10
2018-11-26T23:42:47.841Z,0.10
2018-11-26T23:45:17.421Z,0.00
2018-11-26T23:47:46.098Z,0.00
2018-11-26T23:50:15.212Z,0.10
2018-11-26T23:52:43.980Z,0.10
2018-11-26T23:55:19.994Z,0.10
2018-11-26T23:57:48.616Z,0.20
